LGAD/PYR METAR and TAF weather

Enter ICAO airport designator
Station Type Date Time Source
LGAD METAR 2019/12/09 21:50 UTC NOAA

LGAD 092150Z 00000KT 9999 FEW020 SCT035 BKN080 13/09 Q1010


Station Type Date Time Source
LGAD Decoded METAR 2019/12/09 21:50 UTC NOAA

Andravida Airport , Greece (LGAD) 37-55N 021-17E 14M
Dec 09, 2019 - 04:50 PM EST / 2019.12.09 2150 UTC
Wind: Calm:0
Visibility: greater than 7 mile(s):0
Sky conditions: mostly cloudy
Temperature: 55 F (13 C)
Dew Point: 48 F (9 C)
Relative Humidity: 76%
Pressure (altimeter): 29.83 in. Hg (1010 hPa)
ob: LGAD 092150Z 00000KT 9999 FEW020 SCT035 BKN080 13/09 Q1010
cycle: 22

Station Type Date Time Source
LGAD TAF 2019/11/28 15:39 UTC NOAA

TAF TAF LGAD 281400Z 2815/2903 21012KT 9999 SCT020 SCT080 PROB40
TEMPO 2815/2903 6000 RA SCT020 BKN080 PROB30
TEMPO 2822/2903 3000 TSRA FEW018CB SCT020 BKN080

Example: see airport list